Time;durP1;ratioP1;P1;durP2;ratioP2;P2;SDS_P1;SDS_P2;PMS_P1;PMS_P2;Temp;Humidity;BMP_temperature;BMP_pressure;BME280_temperature;BME280_humidity;BME280_pressure;Samples;Min_cycle;Max_cycle;Signal;HPM_P1;HPM_P2
2023/05/01 00:02:24;;;;;;;6.10;5.40;;;;;;;;;;4997380;28;20451;-73
2023/05/01 00:05:10;;;;;;;11.27;5.28;;;;;;;;;;4997188;28;20454;-73
2023/05/01 00:07:55;;;;;;;9.20;5.22;;;;;;;;;;4997283;28;20019;-74
2023/05/01 00:10:41;;;;;;;6.93;4.93;;;;;;;;;;4996211;28;20403;-73
2023/05/01 00:13:27;;;;;;;12.32;5.35;;;;;;;;;;4996146;28;20117;-74
2023/05/01 00:16:12;;;;;;;9.15;5.53;;;;;;;;;;4997321;28;20105;-73
2023/05/01 00:18:58;;;;;;;9.48;5.43;;;;;;;;;;4996959;28;20030;-74
2023/05/01 00:21:47;;;;;;;8.82;5.47;;;;;;;;;;4983087;28;20011;-73
2023/05/01 00:24:32;;;;;;;8.57;6.07;;;;;;;;;;4997032;28;20470;-73
2023/05/01 00:27:18;;;;;;;8.50;5.93;;;;;;;;;;5011857;28;20058;-74
2023/05/01 00:30:04;;;;;;;7.95;5.75;;;;;;;;;;5002213;28;20030;-73
2023/05/01 00:32:50;;;;;;;6.93;5.35;;;;;;;;;;5015797;28;20037;-73
2023/05/01 00:35:36;;;;;;;8.15;5.45;;;;;;;;;;5002897;28;20021;-74
2023/05/01 00:38:23;;;;;;;6.50;5.25;;;;;;;;;;5002611;28;20053;-74
2023/05/01 00:41:08;;;;;;;12.02;5.75;;;;;;;;;;5001026;28;20465;-73
2023/05/01 00:43:54;;;;;;;8.27;5.47;;;;;;;;;;5016254;28;20037;-73
2023/05/01 00:46:40;;;;;;;8.05;5.80;;;;;;;;;;5025997;28;20026;-74
2023/05/01 00:49:25;;;;;;;9.38;6.10;;;;;;;;;;5011224;28;20002;-72
2023/05/01 00:52:12;;;;;;;10.10;6.25;;;;;;;;;;5034034;28;20084;-75
2023/05/01 00:54:57;;;;;;;8.38;5.82;;;;;;;;;;5039092;28;20089;-74
2023/05/01 00:57:43;;;;;;;9.85;6.03;;;;;;;;;;5024134;28;20026;-73
2023/05/01 01:00:29;;;;;;;9.93;5.90;;;;;;;;;;5001930;28;20390;-74
2023/05/01 01:03:15;;;;;;;7.90;5.35;;;;;;;;;;5002234;28;20077;-73
2023/05/01 01:06:07;;;;;;;11.52;6.25;;;;;;;;;;5015745;28;20033;-72
2023/05/01 01:08:58;;;;;;;10.55;5.90;;;;;;;;;;5018830;28;20025;-73
2023/05/01 01:11:53;;;;;;;9.40;5.88;;;;;;;;;;5016209;28;20037;-73
2023/05/01 01:14:43;;;;;;;9.52;5.85;;;;;;;;;;5001948;28;20026;-73
2023/05/01 01:17:32;;;;;;;9.40;6.35;;;;;;;;;;5016039;28;20036;-73
2023/05/01 01:20:22;;;;;;;12.13;6.28;;;;;;;;;;5015531;28;20433;-73
2023/05/01 01:23:22;;;;;;;8.20;5.97;;;;;;;;;;5014802;28;20370;-73
2023/05/01 01:26:27;;;;;;;13.13;7.38;;;;;;;;;;5001626;28;20410;-74
2023/05/01 01:29:45;;;;;;;10.32;6.28;;;;;;;;;;5015321;28;20343;-73
2023/05/01 01:32:43;;;;;;;10.13;7.18;;;;;;;;;;4982264;28;20041;-73
2023/05/01 01:35:30;;;;;;;10.55;6.75;;;;;;;;;;5015964;28;20018;-73
2023/05/01 01:38:18;;;;;;;9.35;7.43;;;;;;;;;;5027536;28;20032;-73
2023/05/01 01:41:08;;;;;;;8.60;6.47;;;;;;;;;;5020033;28;20042;-73
2023/05/01 01:44:13;;;;;;;11.13;6.80;;;;;;;;;;5015221;28;20057;-73
2023/05/01 01:47:01;;;;;;;10.38;6.10;;;;;;;;;;5018974;28;20050;-72
2023/05/01 01:49:51;;;;;;;11.80;6.70;;;;;;;;;;5020006;28;20042;-73
2023/05/01 01:52:39;;;;;;;8.98;6.18;;;;;;;;;;5023210;28;20018;-74
2023/05/01 01:55:28;;;;;;;11.10;5.45;;;;;;;;;;5015345;28;20359;-74
2023/05/01 01:58:14;;;;;;;8.52;6.45;;;;;;;;;;5013537;28;20021;-74
2023/05/01 02:01:00;;;;;;;9.30;5.95;;;;;;;;;;5014180;28;20499;-74
2023/05/01 02:03:46;;;;;;;8.07;5.82;;;;;;;;;;5015075;28;20456;-74
2023/05/01 02:06:32;;;;;;;8.32;6.18;;;;;;;;;;5015077;28;20037;-74
2023/05/01 02:09:19;;;;;;;8.73;6.18;;;;;;;;;;5013750;28;20022;-73
2023/05/01 02:12:06;;;;;;;7.90;6.47;;;;;;;;;;5014469;28;20057;-73
2023/05/01 02:14:52;;;;;;;7.75;5.65;;;;;;;;;;5016911;28;20080;-72
2023/05/01 02:17:39;;;;;;;8.07;6.72;;;;;;;;;;5017148;28;20022;-73
2023/05/01 02:20:25;;;;;;;10.25;6.93;;;;;;;;;;5001055;28;20431;-72
2023/05/01 02:23:11;;;;;;;10.52;6.50;;;;;;;;;;5014846;28;20365;-72
2023/05/01 02:25:59;;;;;;;10.13;6.60;;;;;;;;;;5014442;28;20050;-74
2023/05/01 02:28:45;;;;;;;9.10;6.68;;;;;;;;;;5014346;28;20032;-74
2023/05/01 02:31:31;;;;;;;10.43;6.95;;;;;;;;;;4999877;28;20025;-74
2023/05/01 02:34:16;;;;;;;10.88;7.20;;;;;;;;;;5014599;28;20018;-73
2023/05/01 02:37:06;;;;;;;9.05;7.20;;;;;;;;;;5014538;28;20037;-72
2023/05/01 02:39:52;;;;;;;11.02;7.68;;;;;;;;;;5014271;28;20026;-73
2023/05/01 02:42:39;;;;;;;9.50;7.05;;;;;;;;;;5013549;28;20105;-73
2023/05/01 02:45:25;;;;;;;9.55;7.03;;;;;;;;;;5015117;28;20100;-73
2023/05/01 02:48:12;;;;;;;8.63;6.30;;;;;;;;;;5014598;28;20022;-73
2023/05/01 02:51:00;;;;;;;8.40;6.20;;;;;;;;;;5003370;28;20104;-73
2023/05/01 02:53:45;;;;;;;11.70;6.78;;;;;;;;;;5018438;28;20365;-73
2023/05/01 02:56:31;;;;;;;8.30;6.50;;;;;;;;;;5018143;28;20022;-74
2023/05/01 02:59:17;;;;;;;10.05;6.88;;;;;;;;;;5003817;28;20030;-73
2023/05/01 03:02:03;;;;;;;10.38;6.60;;;;;;;;;;5017637;28;20049;-74
2023/05/01 03:04:48;;;;;;;8.25;6.47;;;;;;;;;;5017485;28;20026;-74
2023/05/01 03:07:34;;;;;;;10.02;7.63;;;;;;;;;;5018763;28;20025;-73
2023/05/01 03:10:19;;;;;;;11.80;6.97;;;;;;;;;;5017952;28;20033;-74
2023/05/01 03:13:05;;;;;;;15.40;7.43;;;;;;;;;;5017732;28;20026;-73
2023/05/01 03:15:51;;;;;;;15.43;7.65;;;;;;;;;;5003752;28;20018;-73
2023/05/01 03:18:36;;;;;;;11.98;7.65;;;;;;;;;;5017862;28;20037;-73
2023/05/01 03:21:22;;;;;;;11.45;8.05;;;;;;;;;;5018228;28;20014;-73
2023/05/01 03:24:07;;;;;;;14.25;8.23;;;;;;;;;;5017964;28;20018;-74
2023/05/01 03:26:53;;;;;;;12.85;8.63;;;;;;;;;;5017481;28;20378;-74
2023/05/01 03:29:38;;;;;;;12.73;8.65;;;;;;;;;;5017806;28;20057;-73
2023/05/01 03:32:24;;;;;;;15.07;8.95;;;;;;;;;;5002426;28;20046;-73
2023/05/01 03:35:10;;;;;;;14.82;8.80;;;;;;;;;;5017331;28;20030;-73
2023/05/01 03:37:55;;;;;;;14.52;8.57;;;;;;;;;;5003970;28;20022;-72
2023/05/01 03:40:41;;;;;;;16.52;9.50;;;;;;;;;;4998312;28;20397;-73
2023/05/01 03:43:27;;;;;;;13.18;8.95;;;;;;;;;;4984140;28;20450;-73
2023/05/01 03:46:12;;;;;;;16.05;8.65;;;;;;;;;;4998469;28;20053;-73
2023/05/01 03:48:58;;;;;;;10.73;7.72;;;;;;;;;;4984157;28;20038;-73
2023/05/01 03:51:44;;;;;;;15.95;7.93;;;;;;;;;;4997849;28;20092;-74
2023/05/01 03:54:30;;;;;;;8.45;6.97;;;;;;;;;;4998225;28;20127;-74
2023/05/01 03:57:15;;;;;;;13.70;7.53;;;;;;;;;;4997379;28;20014;-74
2023/05/01 04:00:01;;;;;;;12.02;7.13;;;;;;;;;;4997871;28;20018;-74
2023/05/01 04:02:46;;;;;;;9.45;7.13;;;;;;;;;;4997514;28;20491;-73
2023/05/01 04:05:32;;;;;;;11.73;7.13;;;;;;;;;;4998293;28;20022;-74
2023/05/01 04:08:18;;;;;;;17.17;7.35;;;;;;;;;;4983663;28;20053;-74
2023/05/01 04:11:03;;;;;;;9.30;6.63;;;;;;;;;;4997107;28;20037;-73
2023/05/01 04:13:49;;;;;;;10.98;6.57;;;;;;;;;;4997252;28;20030;-74
2023/05/01 04:16:34;;;;;;;11.73;6.95;;;;;;;;;;4997892;28;20097;-73
2023/05/01 04:19:20;;;;;;;10.43;6.65;;;;;;;;;;4983110;28;20106;-73
2023/05/01 04:22:06;;;;;;;10.02;6.72;;;;;;;;;;4997222;28;20022;-72
2023/05/01 04:24:51;;;;;;;9.13;6.68;;;;;;;;;;4996940;28;20014;-73
2023/05/01 04:27:37;;;;;;;10.02;6.93;;;;;;;;;;4997044;28;20042;-73
2023/05/01 04:30:23;;;;;;;13.23;7.43;;;;;;;;;;4983240;28;20414;-73
2023/05/01 04:33:11;;;;;;;11.35;7.50;;;;;;;;;;4996096;28;20045;-74
2023/05/01 04:35:56;;;;;;;12.30;7.70;;;;;;;;;;4996543;28;20123;-73
2023/05/01 04:38:43;;;;;;;9.38;7.45;;;;;;;;;;4996242;28;20114;-73
2023/05/01 04:41:28;;;;;;;10.75;7.13;;;;;;;;;;4982474;28;20092;-73
2023/05/01 04:44:14;;;;;;;9.85;6.65;;;;;;;;;;4996661;28;20018;-73
2023/05/01 04:47:01;;;;;;;8.93;6.60;;;;;;;;;;4995953;28;20026;-74
2023/05/01 04:49:46;;;;;;;10.07;6.43;;;;;;;;;;4982461;28;20060;-73
2023/05/01 04:52:32;;;;;;;9.80;6.32;;;;;;;;;;4983559;28;20336;-73
2023/05/01 04:55:18;;;;;;;12.48;6.47;;;;;;;;;;4982957;28;20085;-74
2023/05/01 04:58:04;;;;;;;9.00;6.03;;;;;;;;;;4982758;28;20038;-74
2023/05/01 05:00:49;;;;;;;12.38;5.88;;;;;;;;;;4982201;28;20031;-73
2023/05/01 05:03:35;;;;;;;7.95;6.03;;;;;;;;;;4983163;28;20033;-73
2023/05/01 05:06:21;;;;;;;8.18;5.65;;;;;;;;;;4981720;28;20105;-73
2023/05/01 05:09:07;;;;;;;7.57;5.72;;;;;;;;;;4983043;28;20054;-73
2023/05/01 05:11:52;;;;;;;8.93;6.13;;;;;;;;;;4996103;28;20037;-73
2023/05/01 05:14:38;;;;;;;8.85;6.13;;;;;;;;;;4982992;28;20123;-73
2023/05/01 05:17:24;;;;;;;8.18;5.60;;;;;;;;;;4997281;28;20022;-73
2023/05/01 05:20:10;;;;;;;8.60;5.68;;;;;;;;;;5000785;28;20089;-74
2023/05/01 05:22:55;;;;;;;7.78;5.75;;;;;;;;;;5004601;28;20007;-74
2023/05/01 05:25:41;;;;;;;8.68;5.95;;;;;;;;;;5011082;28;20041;-75
2023/05/01 05:28:27;;;;;;;8.00;5.82;;;;;;;;;;4982623;28;20022;-75
2023/05/01 05:31:12;;;;;;;9.52;5.60;;;;;;;;;;4996358;28;20018;-74
2023/05/01 05:33:58;;;;;;;11.23;5.80;;;;;;;;;;4982247;28;20027;-75
2023/05/01 05:36:43;;;;;;;9.85;5.97;;;;;;;;;;4995532;28;20022;-73
2023/05/01 05:39:30;;;;;;;9.13;6.10;;;;;;;;;;4995961;28;20409;-74
2023/05/01 05:42:16;;;;;;;9.18;5.78;;;;;;;;;;4997252;28;20122;-74
2023/05/01 05:45:01;;;;;;;9.60;5.80;;;;;;;;;;4999759;28;20023;-75
2023/05/01 05:47:47;;;;;;;8.85;6.38;;;;;;;;;;4997021;28;20052;-74
2023/05/01 05:50:32;;;;;;;8.60;5.80;;;;;;;;;;4995198;28;20366;-74
2023/05/01 05:53:18;;;;;;;8.82;5.88;;;;;;;;;;4981490;28;20058;-73
2023/05/01 05:56:04;;;;;;;11.40;6.85;;;;;;;;;;4981991;28;20026;-74
2023/05/01 05:58:50;;;;;;;8.65;6.32;;;;;;;;;;4994283;28;20033;-74
2023/05/01 06:01:36;;;;;;;10.35;7.03;;;;;;;;;;4980551;28;20022;-73
2023/05/01 06:04:22;;;;;;;15.93;9.98;;;;;;;;;;4981723;28;20072;-73
2023/05/01 06:07:07;;;;;;;15.15;8.38;;;;;;;;;;4994829;28;20030;-74
2023/05/01 06:09:53;;;;;;;8.32;6.80;;;;;;;;;;4995448;28;20035;-74
2023/05/01 06:12:40;;;;;;;10.20;7.32;;;;;;;;;;4995309;28;20442;-73
2023/05/01 06:15:26;;;;;;;8.93;6.60;;;;;;;;;;4994862;28;20022;-74
2023/05/01 06:18:11;;;;;;;10.75;6.43;;;;;;;;;;4995761;28;20027;-74
2023/05/01 06:20:57;;;;;;;8.77;5.78;;;;;;;;;;4981623;28;20026;-74
2023/05/01 06:23:43;;;;;;;9.18;5.15;;;;;;;;;;4982793;28;20041;-75
2023/05/01 06:26:28;;;;;;;9.93;5.53;;;;;;;;;;4998586;28;20035;-74
2023/05/01 06:29:14;;;;;;;12.45;6.57;;;;;;;;;;4999141;28;20433;-75
2023/05/01 06:32:00;;;;;;;13.52;5.85;;;;;;;;;;4998892;28;20109;-76
2023/05/01 06:34:45;;;;;;;13.82;5.28;;;;;;;;;;4998749;28;20026;-74
2023/05/01 06:37:31;;;;;;;13.07;5.13;;;;;;;;;;4998702;28;20037;-77
2023/05/01 06:40:17;;;;;;;16.33;5.80;;;;;;;;;;4998550;28;20018;-73
2023/05/01 06:43:03;;;;;;;10.15;5.22;;;;;;;;;;4998540;28;20105;-73
2023/05/01 06:45:48;;;;;;;10.63;5.47;;;;;;;;;;4998548;28;20331;-73
2023/05/01 06:48:34;;;;;;;11.00;5.68;;;;;;;;;;5011682;28;20018;-74
2023/05/01 06:51:20;;;;;;;8.88;5.60;;;;;;;;;;5017565;28;20033;-74
2023/05/01 06:54:05;;;;;;;10.25;5.68;;;;;;;;;;5018328;28;20048;-74
2023/05/01 06:56:54;;;;;;;8.30;5.30;;;;;;;;;;5018062;28;20462;-74
2023/05/01 06:59:40;;;;;;;10.25;5.00;;;;;;;;;;5018170;28;20025;-74
2023/05/01 07:02:25;;;;;;;9.18;5.40;;;;;;;;;;5017992;28;20017;-74
2023/05/01 07:05:11;;;;;;;8.98;5.53;;;;;;;;;;5018230;28;20036;-74
2023/05/01 07:07:57;;;;;;;9.90;5.78;;;;;;;;;;5018068;28;20033;-73
2023/05/01 07:10:43;;;;;;;8.55;5.07;;;;;;;;;;5017713;28;20030;-75
2023/05/01 07:13:28;;;;;;;10.77;5.07;;;;;;;;;;5018174;28;20366;-73
2023/05/01 07:16:14;;;;;;;11.10;5.63;;;;;;;;;;5018191;28;20030;-75
2023/05/01 07:18:59;;;;;;;13.63;6.15;;;;;;;;;;5017727;28;20014;-74
2023/05/01 07:21:45;;;;;;;10.55;6.03;;;;;;;;;;5017940;28;20022;-74
2023/05/01 07:24:31;;;;;;;12.32;6.85;;;;;;;;;;5017634;28;20033;-74
2023/05/01 07:27:16;;;;;;;16.85;6.68;;;;;;;;;;5017472;28;20466;-74
2023/05/01 07:30:04;;;;;;;12.48;6.18;;;;;;;;;;5017690;28;20068;-73
2023/05/01 07:32:49;;;;;;;12.07;6.78;;;;;;;;;;5017376;28;20030;-73
2023/05/01 07:35:35;;;;;;;11.93;6.18;;;;;;;;;;5017487;28;20022;-73
2023/05/01 07:38:20;;;;;;;11.57;6.72;;;;;;;;;;5003358;28;20034;-73
2023/05/01 07:41:06;;;;;;;18.73;7.20;;;;;;;;;;5017043;28;20084;-75
2023/05/01 07:43:51;;;;;;;9.68;6.18;;;;;;;;;;5017434;28;20045;-74
2023/05/01 07:46:37;;;;;;;24.00;7.38;;;;;;;;;;5017977;28;20439;-74
2023/05/01 07:49:23;;;;;;;9.32;6.00;;;;;;;;;;5017686;28;20053;-74
2023/05/01 07:52:09;;;;;;;14.68;7.53;;;;;;;;;;5016191;28;20116;-74
2023/05/01 07:54:55;;;;;;;9.15;5.72;;;;;;;;;;5002770;28;20160;-73
2023/05/01 07:57:40;;;;;;;11.50;5.80;;;;;;;;;;5002679;28;20049;-73
2023/05/01 08:00:26;;;;;;;8.57;6.50;;;;;;;;;;5017102;28;20041;-74
2023/05/01 08:03:12;;;;;;;9.68;6.70;;;;;;;;;;5017337;28;20025;-74
2023/05/01 08:05:57;;;;;;;12.02;6.45;;;;;;;;;;5018054;28;20113;-73
2023/05/01 08:08:43;;;;;;;15.77;6.50;;;;;;;;;;5016530;28;20030;-74
2023/05/01 08:11:28;;;;;;;15.18;6.10;;;;;;;;;;5003097;28;20524;-75
2023/05/01 08:14:16;;;;;;;15.98;6.35;;;;;;;;;;5017343;28;20040;-74
2023/05/01 08:17:01;;;;;;;12.38;6.65;;;;;;;;;;5016915;28;20541;-74
2023/05/01 08:19:48;;;;;;;9.55;7.20;;;;;;;;;;5013834;28;20053;-74
2023/05/01 08:22:34;;;;;;;13.43;6.82;;;;;;;;;;5016761;28;20026;-73
2023/05/01 08:25:19;;;;;;;10.55;6.63;;;;;;;;;;5016267;28;20018;-74
2023/05/01 08:28:05;;;;;;;15.60;5.78;;;;;;;;;;5016756;28;20030;-73
2023/05/01 08:30:51;;;;;;;14.85;6.35;;;;;;;;;;5016503;28;20034;-74
2023/05/01 08:33:36;;;;;;;16.98;8.82;;;;;;;;;;5015166;28;20088;-74
2023/05/01 08:36:22;;;;;;;17.75;9.95;;;;;;;;;;5016685;28;20028;-73
2023/05/01 08:39:07;;;;;;;14.90;9.10;;;;;;;;;;5016561;28;20025;-74
2023/05/01 08:41:54;;;;;;;13.63;8.25;;;;;;;;;;5016646;28;20045;-74
2023/05/01 08:44:40;;;;;;;9.13;6.18;;;;;;;;;;5016571;28;20047;-72
2023/05/01 08:47:26;;;;;;;20.55;6.80;;;;;;;;;;5001400;28;20021;-73
2023/05/01 08:50:12;;;;;;;20.77;7.53;;;;;;;;;;5017371;28;20378;-73
2023/05/01 08:52:59;;;;;;;13.23;5.80;;;;;;;;;;5016282;28;20079;-74
2023/05/01 08:55:47;;;;;;;23.20;10.45;;;;;;;;;;5016533;28;20056;-74
2023/05/01 08:58:34;;;;;;;47.88;18.15;;;;;;;;;;5015865;28;20029;-73
2023/05/01 09:01:21;;;;;;;13.82;6.15;;;;;;;;;;5013719;28;20045;-73
2023/05/01 09:04:08;;;;;;;8.10;6.22;;;;;;;;;;5016100;28;20061;-74
2023/05/01 09:06:54;;;;;;;14.15;5.55;;;;;;;;;;5015633;28;20032;-73
2023/05/01 09:09:46;;;;;;;9.80;5.53;;;;;;;;;;5113325;27;20476;-74
2023/05/01 09:12:34;;;;;;;9.05;6.45;;;;;;;;;;5111831;28;20035;-74
2023/05/01 09:15:20;;;;;;;7.85;6.03;;;;;;;;;;5112608;28;20446;-72
2023/05/01 09:18:07;;;;;;;9.10;6.30;;;;;;;;;;5121661;28;20004;-72
2023/05/01 09:20:53;;;;;;;11.32;5.78;;;;;;;;;;5117064;28;20371;-75
2023/05/01 09:23:39;;;;;;;11.05;5.63;;;;;;;;;;5109462;28;20340;-74
2023/05/01 09:26:25;;;;;;;11.80;5.65;;;;;;;;;;5117597;28;20359;-74
2023/05/01 09:29:11;;;;;;;8.02;6.10;;;;;;;;;;5117857;28;20023;-73
2023/05/01 09:32:11;;;;;;;12.02;5.90;;;;;;;;;;5133322;27;20019;-75
2023/05/01 09:35:12;;;;;;;12.90;5.90;;;;;;;;;;5131896;28;20407;-75
2023/05/01 09:37:58;;;;;;;16.13;6.35;;;;;;;;;;5135126;27;20003;-76
2023/05/01 09:40:44;;;;;;;14.32;5.07;;;;;;;;;;5135425;27;20020;-75
2023/05/01 09:43:30;;;;;;;8.23;5.28;;;;;;;;;;5131964;28;20027;-75
2023/05/01 09:46:16;;;;;;;13.02;5.82;;;;;;;;;;5118513;28;20503;-73
2023/05/01 09:49:02;;;;;;;9.75;5.82;;;;;;;;;;5131806;28;20024;-74
2023/05/01 09:51:48;;;;;;;10.32;5.93;;;;;;;;;;5118630;28;20378;-74
2023/05/01 09:54:33;;;;;;;8.00;5.75;;;;;;;;;;5132339;28;20481;-74
2023/05/01 09:57:33;;;;;;;11.18;5.88;;;;;;;;;;5132304;28;20046;-74
2023/05/01 10:00:20;;;;;;;10.07;5.10;;;;;;;;;;5117257;28;20023;-74
2023/05/01 10:03:11;;;;;;;9.02;5.05;;;;;;;;;;5115930;28;20111;-74
2023/05/01 10:06:00;;;;;;;7.50;4.90;;;;;;;;;;5131489;28;20337;-75
2023/05/01 10:08:47;;;;;;;8.10;5.65;;;;;;;;;;5131899;27;20320;-74
2023/05/01 10:11:50;;;;;;;9.30;5.72;;;;;;;;;;5115644;28;20019;-74
2023/05/01 10:14:49;;;;;;;9.60;5.95;;;;;;;;;;5130735;28;20348;-73
2023/05/01 10:17:36;;;;;;;7.60;5.57;;;;;;;;;;5117138;28;20404;-75
2023/05/01 10:20:21;;;;;;;7.35;4.93;;;;;;;;;;5122094;28;20063;-73
2023/05/01 10:23:07;;;;;;;9.27;5.13;;;;;;;;;;5103060;28;20034;-73
2023/05/01 10:25:54;;;;;;;6.13;4.47;;;;;;;;;;5117165;28;20016;-73
2023/05/01 10:28:40;;;;;;;7.85;4.70;;;;;;;;;;5116475;28;20024;-74
2023/05/01 10:34:31;;;;;;;12.23;5.55;;;;;;;;;;5118328;28;20012;-73
2023/05/01 10:37:22;;;;;;;8.55;5.90;;;;;;;;;;5117699;28;20016;-73
2023/05/01 10:40:26;;;;;;;10.65;5.70;;;;;;;;;;5116714;28;20034;-74
2023/05/01 10:43:17;;;;;;;7.93;5.10;;;;;;;;;;5102646;28;20035;-73
2023/05/01 10:46:06;;;;;;;6.78;4.93;;;;;;;;;;5102482;28;20028;-75
2023/05/01 10:48:52;;;;;;;9.10;5.07;;;;;;;;;;5117094;28;20447;-74
2023/05/01 10:51:57;;;;;;;8.30;4.78;;;;;;;;;;5102337;28;20164;-74
2023/05/01 10:54:42;;;;;;;10.85;5.55;;;;;;;;;;5117255;28;20024;-72
2023/05/01 10:57:41;;;;;;;11.43;5.30;;;;;;;;;;5102561;28;20556;-74
2023/05/01 11:00:26;;;;;;;8.60;4.68;;;;;;;;;;5103211;28;20478;-73
2023/05/01 11:03:33;;;;;;;6.13;4.75;;;;;;;;;;5116496;28;20114;-73
2023/05/01 11:06:19;;;;;;;13.85;5.80;;;;;;;;;;5101177;28;20031;-73
2023/05/01 11:09:23;;;;;;;6.80;5.18;;;;;;;;;;5101954;28;20040;-73
2023/05/01 11:12:10;;;;;;;9.88;5.30;;;;;;;;;;5116347;28;20096;-72
2023/05/01 11:14:56;;;;;;;8.13;4.85;;;;;;;;;;5115804;28;20019;-73
2023/05/01 11:17:41;;;;;;;6.82;5.13;;;;;;;;;;5117480;28;20150;-73
2023/05/01 11:20:28;;;;;;;6.93;4.70;;;;;;;;;;5102679;28;20436;-74
2023/05/01 11:23:16;;;;;;;9.50;4.40;;;;;;;;;;5102248;28;20093;-73
2023/05/01 11:26:03;;;;;;;9.48;4.55;;;;;;;;;;5117446;28;20432;-73
2023/05/01 11:28:52;;;;;;;8.65;4.25;;;;;;;;;;5116318;28;20045;-72
2023/05/01 11:31:38;;;;;;;13.57;4.43;;;;;;;;;;5100269;28;20022;-74
2023/05/01 11:34:24;;;;;;;10.98;6.00;;;;;;;;;;5102417;28;20495;-73
2023/05/01 11:37:10;;;;;;;6.88;3.60;;;;;;;;;;5104778;28;20443;-73
2023/05/01 11:39:55;;;;;;;8.20;3.80;;;;;;;;;;5117996;28;20108;-74
2023/05/01 11:42:41;;;;;;;5.05;3.58;;;;;;;;;;5117785;28;20451;-73
2023/05/01 11:45:27;;;;;;;8.48;3.42;;;;;;;;;;5102292;28;20024;-72
2023/05/01 11:48:14;;;;;;;6.50;3.00;;;;;;;;;;5115893;28;20051;-72
2023/05/01 11:51:00;;;;;;;6.68;3.45;;;;;;;;;;5100419;28;20011;-73
2023/05/01 11:53:59;;;;;;;8.32;3.75;;;;;;;;;;5101665;28;20015;-73
2023/05/01 11:56:45;;;;;;;7.95;4.15;;;;;;;;;;5114482;28;20027;-73
2023/05/01 11:59:30;;;;;;;9.70;4.10;;;;;;;;;;5100644;28;20449;-73
2023/05/01 12:02:19;;;;;;;5.93;3.40;;;;;;;;;;5116154;28;20470;-73
2023/05/01 12:05:15;;;;;;;5.65;3.20;;;;;;;;;;5102141;28;20031;-73
2023/05/01 12:08:10;;;;;;;8.90;3.60;;;;;;;;;;5114346;28;20459;-73
2023/05/01 12:10:56;;;;;;;8.10;3.45;;;;;;;;;;5101073;28;20096;-73
2023/05/01 12:13:42;;;;;;;6.25;3.72;;;;;;;;;;5101657;28;20019;-73
2023/05/01 12:16:28;;;;;;;11.43;4.00;;;;;;;;;;5115144;28;20218;-74
2023/05/01 12:19:14;;;;;;;4.38;3.25;;;;;;;;;;5115728;28;20059;-73
2023/05/01 12:22:04;;;;;;;5.95;3.72;;;;;;;;;;5101733;28;20019;-74
2023/05/01 12:24:52;;;;;;;6.43;3.30;;;;;;;;;;5115620;28;20077;-73
2023/05/01 12:27:42;;;;;;;4.32;2.95;;;;;;;;;;5114320;28;20031;-74
2023/05/01 12:30:28;;;;;;;5.10;3.00;;;;;;;;;;5114338;28;20011;-74
2023/05/01 12:33:15;;;;;;;5.22;3.08;;;;;;;;;;5115322;28;20024;-74
2023/05/01 12:36:13;;;;;;;6.32;3.40;;;;;;;;;;5114226;28;20042;-73
2023/05/01 12:39:00;;;;;;;8.27;3.28;;;;;;;;;;5114372;28;20024;-72
2023/05/01 12:41:47;;;;;;;6.63;2.70;;;;;;;;;;5101344;28;20358;-74
2023/05/01 12:44:32;;;;;;;4.32;2.80;;;;;;;;;;5114391;28;20027;-74
2023/05/01 12:47:18;;;;;;;11.05;4.00;;;;;;;;;;5115929;28;20035;-74
2023/05/01 12:50:04;;;;;;;7.22;3.80;;;;;;;;;;5115522;28;20023;-73
2023/05/01 12:52:50;;;;;;;5.65;3.38;;;;;;;;;;5099230;28;20077;-73
2023/05/01 12:55:46;;;;;;;4.88;3.30;;;;;;;;;;5114725;28;20129;-73
2023/05/01 12:58:36;;;;;;;9.40;3.30;;;;;;;;;;5099452;28;20094;-73
2023/05/01 13:01:26;;;;;;;5.40;3.20;;;;;;;;;;5099740;28;20081;-75
2023/05/01 13:04:11;;;;;;;5.78;3.40;;;;;;;;;;5100738;28;20470;-73
2023/05/01 13:06:57;;;;;;;4.63;3.33;;;;;;;;;;5114856;28;20016;-73
2023/05/01 13:09:53;;;;;;;3.67;3.25;;;;;;;;;;5114601;28;20130;-75
2023/05/01 13:12:43;;;;;;;7.03;3.47;;;;;;;;;;5119462;28;20027;-73
2023/05/01 13:15:28;;;;;;;5.72;3.30;;;;;;;;;;5118108;28;20027;-73
2023/05/01 13:18:14;;;;;;;9.05;3.53;;;;;;;;;;5117332;28;20045;-74
2023/05/01 13:21:07;;;;;;;6.10;3.30;;;;;;;;;;5100713;28;20023;-74
2023/05/01 13:23:54;;;;;;;4.57;2.92;;;;;;;;;;5114937;28;20027;-74
2023/05/01 13:26:40;;;;;;;4.15;2.97;;;;;;;;;;5115263;28;20031;-74
2023/05/01 13:29:25;;;;;;;7.68;3.13;;;;;;;;;;5114887;28;20088;-73
2023/05/01 13:32:11;;;;;;;11.23;3.25;;;;;;;;;;5115797;28;20023;-74
2023/05/01 13:34:59;;;;;;;4.80;3.20;;;;;;;;;;5125606;28;20022;-73
2023/05/01 13:37:44;;;;;;;7.63;3.30;;;;;;;;;;5115931;28;20099;-75
2023/05/01 13:40:32;;;;;;;4.68;2.90;;;;;;;;;;5114712;28;20020;-74
2023/05/01 13:43:21;;;;;;;3.88;3.15;;;;;;;;;;5101195;28;20439;-74
2023/05/01 13:46:06;;;;;;;3.17;2.88;;;;;;;;;;5100453;28;20047;-73
2023/05/01 13:48:52;;;;;;;4.10;3.03;;;;;;;;;;5100600;28;20031;-73
2023/05/01 13:51:41;;;;;;;5.03;3.00;;;;;;;;;;5099990;28;20058;-73
2023/05/01 13:54:27;;;;;;;6.45;3.10;;;;;;;;;;5114091;28;20062;-73
2023/05/01 13:57:14;;;;;;;11.38;3.67;;;;;;;;;;5118647;28;20023;-73
2023/05/01 14:00:00;;;;;;;9.30;3.55;;;;;;;;;;5117205;28;20362;-73
2023/05/01 14:02:51;;;;;;;5.38;2.95;;;;;;;;;;5118516;28;20016;-74
2023/05/01 14:05:38;;;;;;;5.28;2.97;;;;;;;;;;5118372;28;20380;-73
2023/05/01 14:08:26;;;;;;;7.18;3.30;;;;;;;;;;5118040;28;20039;-74
2023/05/01 14:11:13;;;;;;;7.22;3.15;;;;;;;;;;5117557;28;20055;-73
2023/05/01 14:13:59;;;;;;;9.38;3.33;;;;;;;;;;5117921;28;20458;-73
2023/05/01 14:16:45;;;;;;;8.45;3.17;;;;;;;;;;5117068;28;20046;-73
2023/05/01 14:19:31;;;;;;;7.82;3.10;;;;;;;;;;5117064;28;20019;-73
2023/05/01 14:22:17;;;;;;;9.20;3.08;;;;;;;;;;5116720;28;20043;-74
2023/05/01 14:25:04;;;;;;;8.18;3.25;;;;;;;;;;5117865;28;20446;-73
2023/05/01 14:27:51;;;;;;;6.35;2.80;;;;;;;;;;5102204;28;20030;-73
2023/05/01 14:30:37;;;;;;;9.70;2.92;;;;;;;;;;5117468;28;20039;-73
2023/05/01 14:33:25;;;;;;;5.43;2.60;;;;;;;;;;5118111;28;20398;-74
2023/05/01 14:36:11;;;;;;;13.55;3.20;;;;;;;;;;5117134;28;20023;-73
2023/05/01 14:38:57;;;;;;;9.80;3.25;;;;;;;;;;5103410;28;20348;-74
2023/05/01 14:41:43;;;;;;;7.30;3.42;;;;;;;;;;5117494;28;20024;-73
2023/05/01 14:44:28;;;;;;;5.88;3.40;;;;;;;;;;5116038;28;20402;-74
2023/05/01 14:47:18;;;;;;;11.55;3.38;;;;;;;;;;5117655;28;20427;-73
2023/05/01 14:50:05;;;;;;;7.50;3.05;;;;;;;;;;5117237;28;20055;-73
2023/05/01 14:52:54;;;;;;;7.03;2.95;;;;;;;;;;5116735;28;20464;-73
2023/05/01 14:55:40;;;;;;;7.38;3.03;;;;;;;;;;5117288;28;20066;-73
2023/05/01 14:58:25;;;;;;;7.63;2.90;;;;;;;;;;5116682;28;20107;-73
2023/05/01 15:01:12;;;;;;;6.78;3.00;;;;;;;;;;5117193;28;20032;-73
2023/05/01 15:03:58;;;;;;;6.28;2.80;;;;;;;;;;5116976;28;20026;-73
2023/05/01 15:06:43;;;;;;;3.83;2.55;;;;;;;;;;5116650;28;20027;-73
2023/05/01 15:09:29;;;;;;;9.30;2.63;;;;;;;;;;5116226;28;20120;-73
2023/05/01 15:12:15;;;;;;;6.10;3.00;;;;;;;;;;5103136;28;20085;-73
2023/05/01 15:15:01;;;;;;;8.27;3.08;;;;;;;;;;5120790;28;20030;-72
2023/05/01 15:17:46;;;;;;;7.35;3.53;;;;;;;;;;5121078;28;20026;-74
2023/05/01 15:20:32;;;;;;;4.55;2.92;;;;;;;;;;5104796;28;20069;-72
2023/05/01 15:23:17;;;;;;;7.13;2.70;;;;;;;;;;5119200;28;20015;-73
2023/05/01 15:26:03;;;;;;;5.10;2.80;;;;;;;;;;5119066;28;20016;-72
2023/05/01 15:28:49;;;;;;;7.63;2.53;;;;;;;;;;5117292;28;20031;-72
2023/05/01 15:31:34;;;;;;;6.32;2.50;;;;;;;;;;5104713;28;20428;-73
2023/05/01 15:34:20;;;;;;;4.53;2.55;;;;;;;;;;5104790;28;20062;-73
2023/05/01 15:37:06;;;;;;;6.70;2.67;;;;;;;;;;5102703;28;20061;-74
2023/05/01 15:39:51;;;;;;;5.35;2.75;;;;;;;;;;5116100;28;20023;-73
2023/05/01 15:42:37;;;;;;;5.30;2.90;;;;;;;;;;5102381;28;20023;-72
2023/05/01 15:45:23;;;;;;;7.68;2.70;;;;;;;;;;5115919;28;20024;-73
2023/05/01 15:48:09;;;;;;;3.83;2.60;;;;;;;;;;5116045;28;20027;-73
2023/05/01 15:50:55;;;;;;;5.63;2.50;;;;;;;;;;5116102;28;20023;-72
2023/05/01 15:53:41;;;;;;;34.10;3.83;;;;;;;;;;5115687;28;20045;-73
2023/05/01 15:56:26;;;;;;;4.97;2.80;;;;;;;;;;5116702;28;20012;-73
2023/05/01 15:59:13;;;;;;;7.00;2.70;;;;;;;;;;5101348;28;20027;-73
2023/05/01 16:01:58;;;;;;;10.85;3.20;;;;;;;;;;5115576;28;20039;-74
2023/05/01 16:04:45;;;;;;;12.55;3.10;;;;;;;;;;5115194;28;20431;-73
2023/05/01 16:07:32;;;;;;;6.63;3.13;;;;;;;;;;5115496;28;20059;-73
2023/05/01 16:10:17;;;;;;;5.85;2.78;;;;;;;;;;5100186;28;20050;-73
2023/05/01 16:13:05;;;;;;;5.28;2.90;;;;;;;;;;5115683;28;20028;-73
2023/05/01 16:15:50;;;;;;;20.80;3.47;;;;;;;;;;5115079;28;20099;-73
2023/05/01 16:18:38;;;;;;;14.07;3.05;;;;;;;;;;5100284;28;20026;-73
2023/05/01 16:21:25;;;;;;;5.28;2.65;;;;;;;;;;5115362;28;20035;-73
2023/05/01 16:24:11;;;;;;;5.55;2.90;;;;;;;;;;5100300;28;20351;-73
2023/05/01 16:26:57;;;;;;;15.65;3.40;;;;;;;;;;5115598;28;20020;-74
2023/05/01 16:29:42;;;;;;;4.88;2.95;;;;;;;;;;5101181;28;20546;-73
2023/05/01 16:32:28;;;;;;;5.70;3.10;;;;;;;;;;5114858;28;20111;-73
2023/05/01 16:35:16;;;;;;;7.15;3.00;;;;;;;;;;5101466;28;20032;-73
2023/05/01 16:38:02;;;;;;;9.07;3.88;;;;;;;;;;5099678;28;20051;-72
2023/05/01 16:40:47;;;;;;;6.68;3.38;;;;;;;;;;5116360;27;20398;-73